createdAt,value
2016-03-06T00:00:36.998Z,89.11
2016-03-06T00:01:36.907Z,89.2
2016-03-06T00:02:36.878Z,88.63
2016-03-06T00:03:36.803Z,89.11
2016-03-06T00:04:36.743Z,89.11
2016-03-06T00:05:36.714Z,89.48
2016-03-06T00:06:36.691Z,89.67
2016-03-06T00:07:36.569Z,89.29
2016-03-06T00:08:36.524Z,89.11
2016-03-06T00:09:36.464Z,89.58
2016-03-06T00:10:36.418Z,89.48
2016-03-06T00:11:36.346Z,89.29
2016-03-06T00:12:36.272Z,89.11
2016-03-06T00:13:36.227Z,88.92
2016-03-06T00:14:36.199Z,89.2
2016-03-06T00:15:36.138Z,89.11
2016-03-06T00:16:36.094Z,89.11
2016-03-06T00:17:36.018Z,89.2
2016-03-06T00:18:35.943Z,89.2
2016-03-06T00:19:35.884Z,89.2
2016-03-06T00:20:35.809Z,89.2
2016-03-06T00:21:35.811Z,89.01
2016-03-06T00:22:35.704Z,89.2
2016-03-06T00:23:35.675Z,88.54
2016-03-06T00:24:35.569Z,89.2
2016-03-06T00:25:35.540Z,89.11
2016-03-06T00:26:35.465Z,89.01
2016-03-06T00:27:35.436Z,88.63
2016-03-06T00:28:35.362Z,89.2
2016-03-06T00:29:35.317Z,89.2
2016-03-06T00:30:35.289Z,88.92
2016-03-06T00:31:35.166Z,89.01
2016-03-06T00:32:35.122Z,88.63
2016-03-06T00:33:35.108Z,88.82
2016-03-06T00:34:35.018Z,88.92
2016-03-06T00:35:34.958Z,89.01
2016-03-06T00:36:34.898Z,89.01
2016-03-06T00:37:34.869Z,89.01
2016-03-06T00:38:34.778Z,88.25
2016-03-06T00:39:34.719Z,89.06
2016-03-06T00:40:34.690Z,89.01
2016-03-06T00:41:34.615Z,88.92
2016-03-06T00:42:34.602Z,88.73
2016-03-06T00:43:34.510Z,89.01
2016-03-06T00:44:34.436Z,89.11
2016-03-06T00:45:34.407Z,88.77
2016-03-06T00:46:34.316Z,88.87
2016-03-06T00:47:34.256Z,89.15
2016-03-06T00:48:34.227Z,89.06
2016-03-06T00:49:34.167Z,88.73
2016-03-06T00:50:34.077Z,88.29
2016-03-06T00:51:34.048Z,88.39
2016-03-06T00:52:33.988Z,88.35
2016-03-06T00:53:33.928Z,88.2
2016-03-06T00:54:33.853Z,88.2
2016-03-06T00:55:33.823Z,88.2
2016-03-06T00:56:33.718Z,88.39
2016-03-06T00:57:33.689Z,89.06
2016-03-06T00:58:33.629Z,88.96
2016-03-06T00:59:33.569Z,88.82
2016-03-06T01:00:33.542Z,89.06
2016-03-06T01:01:33.465Z,88.87
2016-03-06T01:02:33.422Z,88.96
2016-03-06T01:03:33.361Z,88.87
2016-03-06T01:04:33.317Z,89.06
2016-03-06T01:05:33.241Z,89.06
2016-03-06T01:06:33.183Z,88.87
2016-03-06T01:07:32.356Z,89.06
2016-03-06T01:08:33.063Z,89.06
2016-03-06T01:09:33.018Z,88.77
2016-03-06T01:10:32.963Z,88.68
2016-03-06T01:11:32.872Z,88.39
2016-03-06T01:12:32.813Z,88.39
2016-03-06T01:13:32.784Z,88.77
2016-03-06T01:14:32.708Z,88.39
2016-03-06T01:15:32.679Z,88.2
2016-03-06T01:16:32.604Z,89.06
2016-03-06T01:17:32.560Z,89.15
2016-03-06T01:18:32.469Z,89.25
2016-03-06T01:19:32.425Z,88.96
2016-03-06T01:20:34.459Z,88.96
2016-03-06T01:21:32.321Z,89.06
2016-03-06T01:22:32.292Z,88.48
2016-03-06T01:23:32.201Z,88.29
2016-03-06T01:24:32.142Z,88.48
2016-03-06T01:25:32.081Z,89.06
2016-03-06T01:26:32.022Z,88.96
2016-03-06T01:27:31.947Z,88.87
2016-03-06T01:28:31.918Z,88.87
2016-03-06T01:29:31.842Z,89.25
2016-03-06T01:30:31.814Z,89.06
2016-03-06T01:31:31.769Z,88.77
2016-03-06T01:32:31.678Z,88.92
2016-03-06T01:33:31.603Z,89.06
2016-03-06T01:34:31.559Z,88.96
2016-03-06T01:35:31.499Z,89.06
2016-03-06T01:36:31.439Z,88.96
2016-03-06T01:37:31.379Z,89.06
2016-03-06T01:38:31.335Z,89.06
2016-03-06T01:39:31.260Z,89.06
2016-03-06T01:40:31.216Z,88.87
2016-03-06T01:41:31.140Z,88.87
2016-03-06T01:42:31.096Z,88.29
2016-03-06T01:43:31.099Z,88.29
2016-03-06T01:44:30.961Z,88.87
2016-03-06T01:45:30.916Z,88.87
2016-03-06T01:46:30.857Z,88.96
2016-03-06T01:47:30.812Z,88.39
2016-03-06T01:48:30.815Z,88.87
2016-03-06T01:49:30.724Z,88.39
2016-03-06T01:50:30.634Z,88.96
2016-03-06T01:51:30.573Z,89.25
2016-03-06T01:52:30.529Z,88.77
2016-03-06T01:53:30.469Z,88.77
2016-03-06T01:54:30.409Z,88.96
2016-03-06T01:55:30.350Z,88.96
2016-03-06T01:56:30.353Z,89.15
2016-03-06T01:57:30.542Z,88.77
2016-03-06T01:58:30.186Z,88.68
2016-03-06T01:59:30.142Z,89.06
2016-03-06T02:00:30.082Z,88.96
2016-03-06T02:01:30.006Z,88.58
2016-03-06T02:02:29.962Z,88.96
2016-03-06T02:03:29.964Z,88.96
2016-03-06T02:04:29.842Z,88.87
2016-03-06T02:05:29.783Z,88.1
2016-03-06T02:06:29.739Z,88.58
2016-03-06T02:07:29.663Z,88.77
2016-03-06T02:08:29.619Z,88.77
2016-03-06T02:09:29.559Z,88.44
2016-03-06T02:10:29.468Z,88.29
2016-03-06T02:11:29.440Z,88.68
2016-03-06T02:12:29.349Z,88.2
2016-03-06T02:13:29.304Z,88.48
2016-03-06T02:14:29.260Z,88.2
2016-03-06T02:15:29.232Z,88.01
2016-03-06T02:16:29.125Z,88.25
2016-03-06T02:17:29.081Z,88.58
2016-03-06T02:18:29.021Z,87.92
2016-03-06T02:19:28.961Z,88.2
2016-03-06T02:20:28.885Z,88.29
2016-03-06T02:21:28.873Z,87.82
2016-03-06T02:22:28.781Z,87.82
2016-03-06T02:23:28.753Z,88.2
2016-03-06T02:24:28.678Z,87.77
2016-03-06T02:25:28.617Z,87.45
2016-03-06T02:26:28.590Z,87.59
2016-03-06T02:27:28.529Z,87.59
2016-03-06T02:28:28.454Z,87.87
2016-03-06T02:29:28.394Z,87.97
2016-03-06T02:30:28.350Z,87.49
2016-03-06T02:31:28.290Z,87.77
2016-03-06T02:32:28.247Z,87.4
2016-03-06T02:33:28.170Z,87.45
2016-03-06T02:34:28.127Z,87.68
2016-03-06T02:35:28.066Z,86.93
2016-03-06T02:36:27.992Z,86.83
2016-03-06T02:37:27.931Z,86.64
2016-03-06T02:38:27.872Z,87.12
2016-03-06T02:39:27.858Z,87.68
2016-03-06T02:40:27.752Z,87.21
2016-03-06T02:41:27.707Z,87.49
2016-03-06T02:42:33.898Z,86.93
2016-03-06T02:43:27.588Z,86.83
2016-03-06T02:44:27.529Z,86.83
2016-03-06T02:45:27.469Z,86.83
2016-03-06T02:46:27.440Z,86.83
2016-03-06T02:47:27.333Z,86.83
2016-03-06T02:48:27.290Z,87.02
2016-03-06T02:49:27.229Z,87.68
2016-03-06T02:50:27.154Z,86.74
2016-03-06T02:51:27.109Z,86.83
2016-03-06T02:52:27.050Z,86.74
2016-03-06T02:53:26.990Z,87.02
2016-03-06T02:54:26.931Z,86.74
2016-03-06T02:55:26.886Z,86.93
2016-03-06T02:56:26.826Z,86.83
2016-03-06T02:57:26.781Z,86.83
2016-03-06T02:58:26.753Z,86.93
2016-03-06T02:59:26.678Z,86.74
2016-03-06T03:00:26.587Z,87.4
2016-03-06T03:01:26.527Z,86.83
2016-03-06T03:02:26.468Z,87.12
2016-03-06T03:03:26.439Z,86.83
2016-03-06T03:04:26.364Z,86.83
2016-03-06T03:05:26.303Z,86.93
2016-03-06T03:06:26.244Z,87.02
2016-03-06T03:07:26.215Z,86.93
2016-03-06T03:08:26.140Z,86.74
2016-03-06T03:09:26.064Z,87.02
2016-03-06T03:10:26.005Z,86.83
2016-03-06T03:11:25.976Z,86.83
2016-03-06T03:12:25.885Z,87.12
2016-03-06T03:13:25.856Z,86.93
2016-03-06T03:14:25.781Z,86.83
2016-03-06T03:15:25.737Z,86.93
2016-03-06T03:16:25.677Z,86.93
2016-03-06T03:17:25.601Z,86.83
2016-03-06T03:18:25.542Z,87.49
2016-03-06T03:19:25.513Z,87.49
2016-03-06T03:20:25.438Z,86.83
2016-03-06T03:21:25.409Z,87.02
2016-03-06T03:22:25.302Z,87.3
2016-03-06T03:23:25.273Z,87.59
2016-03-06T03:24:25.215Z,87.02
2016-03-06T03:25:25.014Z,86.74
2016-03-06T03:26:25.095Z,86.83
2016-03-06T03:27:25.019Z,86.74
2016-03-06T03:28:24.956Z,87.12
2016-03-06T03:29:24.912Z,86.93
2016-03-06T03:30:24.852Z,86.93
2016-03-06T03:31:24.778Z,86.83
2016-03-06T03:32:24.717Z,86.83
2016-03-06T03:33:24.704Z,86.74
2016-03-06T03:34:24.597Z,86.16
2016-03-06T03:35:24.554Z,86.64
2016-03-06T03:36:24.509Z,86.93
2016-03-06T03:37:24.419Z,86.83
2016-03-06T03:38:24.389Z,86.83
2016-03-06T03:39:24.343Z,86.93
2016-03-06T03:40:24.254Z,86.83
2016-03-06T03:41:24.179Z,86.93
2016-03-06T03:42:24.088Z,87.02
2016-03-06T03:43:24.045Z,86.74
2016-03-06T03:44:23.955Z,86.93
2016-03-06T03:45:23.922Z,86.83
2016-03-06T03:46:23.825Z,86.93
2016-03-06T03:47:23.775Z,86.74
2016-03-06T03:48:23.710Z,86.45
2016-03-06T03:49:23.645Z,86.93
2016-03-06T03:50:23.584Z,86.74
2016-03-06T03:51:23.506Z,86.74
2016-03-06T03:52:23.444Z,86.74
2016-03-06T03:53:23.382Z,87.12
2016-03-06T03:54:23.320Z,86.93
2016-03-06T03:55:23.276Z,86.83
2016-03-06T03:56:23.232Z,86.64
2016-03-06T03:57:23.172Z,86.93
2016-03-06T03:58:23.097Z,87.12
2016-03-06T03:59:23.052Z,86.55
2016-03-06T04:00:23.007Z,86.74
2016-03-06T04:01:22.915Z,86.74
2016-03-06T04:02:22.872Z,86.83
2016-03-06T04:03:22.795Z,86.45
2016-03-06T04:04:22.735Z,86.26
2016-03-06T04:05:22.690Z,86.26
2016-03-06T04:06:22.647Z,86.45
2016-03-06T04:07:22.587Z,85.69
2016-03-06T04:08:22.511Z,85.69
2016-03-06T04:09:22.468Z,86.64
2016-03-06T04:10:22.392Z,86.35
2016-03-06T04:11:22.379Z,86.83
2016-03-06T04:12:22.304Z,86.64
2016-03-06T04:13:22.228Z,86.35
2016-03-06T04:14:22.184Z,86.16
2016-03-06T04:15:22.123Z,86.35
2016-03-06T04:16:22.064Z,86.16
2016-03-06T04:17:22.020Z,86.16
2016-03-06T04:18:21.945Z,86.45
2016-03-06T04:19:21.900Z,85.69
2016-03-06T04:20:21.840Z,86.26
2016-03-06T04:21:21.765Z,85.69
2016-03-06T04:22:21.720Z,85.78
2016-03-06T04:23:21.661Z,86.07
2016-03-06T04:24:21.601Z,85.97
2016-03-06T04:25:21.557Z,85.97
2016-03-06T04:26:21.481Z,85.69
2016-03-06T04:27:21.453Z,85.5
2016-03-06T04:28:21.362Z,85.69
2016-03-06T04:29:21.302Z,85.88
2016-03-06T04:30:21.242Z,86.07
2016-03-06T04:31:21.198Z,85.6
2016-03-06T04:32:21.123Z,85.22
2016-03-06T04:33:21.079Z,85.5
2016-03-06T04:34:21.018Z,85.6
2016-03-06T04:35:20.960Z,85.5
2016-03-06T04:36:20.883Z,85.6
2016-03-06T04:37:20.840Z,85.6
2016-03-06T04:38:20.795Z,85.41
2016-03-06T04:39:20.751Z,85.41
2016-03-06T04:40:20.676Z,85.5
2016-03-06T04:41:20.615Z,85.13
2016-03-06T04:42:20.556Z,84.65
2016-03-06T04:43:20.481Z,84.36
2016-03-06T04:44:20.421Z,84.94
2016-03-06T04:45:20.376Z,84.94
2016-03-06T04:46:20.332Z,85.03
2016-03-06T04:47:20.257Z,84.94
2016-03-06T04:48:20.181Z,84.55
2016-03-06T04:49:20.137Z,84.55
2016-03-06T04:50:20.093Z,84.17
2016-03-06T04:51:20.033Z,84.17
2016-03-06T04:52:19.958Z,84.36
2016-03-06T04:53:19.898Z,84.17
2016-03-06T04:54:19.839Z,84.27
2016-03-06T04:55:19.826Z,83.7
2016-03-06T04:56:19.750Z,84.08
2016-03-06T04:57:19.663Z,84.27
2016-03-06T04:58:19.619Z,84.27
2016-03-06T04:59:19.544Z,84.36
2016-03-06T05:00:19.500Z,84.36
2016-03-06T05:01:19.424Z,84.17
2016-03-06T05:02:19.396Z,83.98
2016-03-06T05:03:19.320Z,84.08
2016-03-06T05:04:19.246Z,84.27
2016-03-06T05:05:19.169Z,84.08
2016-03-06T05:06:19.157Z,84.46
2016-03-06T05:07:19.096Z,84.08
2016-03-06T05:08:19.006Z,84.17
2016-03-06T05:09:18.977Z,84.55
2016-03-06T05:10:18.886Z,84.27
2016-03-06T05:11:18.810Z,84.46
2016-03-06T05:12:18.767Z,84.55
2016-03-06T05:13:18.722Z,84.65
2016-03-06T05:14:18.647Z,84.46
2016-03-06T05:15:18.618Z,84.51
2016-03-06T05:16:18.543Z,84.65
2016-03-06T05:17:18.483Z,84.99
2016-03-06T05:18:18.408Z,85.13
2016-03-06T05:19:18.395Z,84.55
2016-03-06T05:20:18.319Z,84.74
2016-03-06T05:21:18.259Z,84.55
2016-03-06T05:22:18.278Z,84.55
2016-03-06T05:23:18.139Z,84.8
2016-03-06T05:24:18.064Z,85.03
2016-03-06T05:25:18.020Z,84.84
2016-03-06T05:26:17.945Z,84.84
2016-03-06T05:27:17.886Z,84.94
2016-03-06T05:28:17.810Z,84.84
2016-03-06T05:29:17.780Z,84.74
2016-03-06T05:30:17.737Z,84.94
2016-03-06T05:31:17.646Z,85.13
2016-03-06T05:32:17.476Z,84.89
2016-03-06T05:33:17.557Z,85.03
2016-03-06T05:34:17.576Z,84.94
2016-03-06T05:35:17.422Z,84.94
2016-03-06T05:36:17.377Z,84.8
2016-03-06T05:37:17.271Z,84.55
2016-03-06T05:38:17.243Z,84.36
2016-03-06T05:39:17.168Z,84.46
2016-03-06T05:40:17.123Z,84.74
2016-03-06T05:41:17.078Z,84.65
2016-03-06T05:42:16.988Z,84.65
2016-03-06T05:43:16.975Z,84.74
2016-03-06T05:44:16.915Z,84.74
2016-03-06T05:45:16.840Z,84.51
2016-03-06T05:46:16.779Z,84.94
2016-03-06T05:47:16.704Z,84.74
2016-03-06T05:48:16.676Z,84.74
2016-03-06T05:49:16.616Z,84.55
2016-03-06T05:50:16.525Z,84.65
2016-03-06T05:51:16.465Z,84.84
2016-03-06T05:52:16.452Z,85.13
2016-03-06T05:53:16.361Z,84.94
2016-03-06T05:54:16.286Z,84.55
2016-03-06T05:55:16.241Z,84.94
2016-03-06T05:56:16.181Z,84.84
2016-03-06T05:57:16.153Z,84.36
2016-03-06T05:58:16.077Z,84.17
2016-03-06T05:59:16.033Z,83.8
2016-03-06T06:00:16.052Z,84.36
2016-03-06T06:01:15.960Z,84.46
2016-03-06T06:02:15.917Z,83.98
2016-03-06T06:03:15.763Z,84.17
2016-03-06T06:04:15.781Z,84.27
2016-03-06T06:05:15.675Z,84.84
2016-03-06T06:06:15.599Z,84.55
2016-03-06T06:07:15.539Z,84.27
2016-03-06T06:08:15.480Z,84.27
2016-03-06T06:09:15.420Z,84.36
2016-03-06T06:10:15.360Z,84.17
2016-03-06T06:11:15.301Z,84.55
2016-03-06T06:12:15.240Z,84.42
2016-03-06T06:13:15.196Z,84.55
2016-03-06T06:14:15.215Z,84.84
2016-03-06T06:15:15.092Z,84.51
2016-03-06T06:16:15.016Z,84.32
2016-03-06T06:17:15.051Z,84.46
2016-03-06T06:18:14.959Z,84.08
2016-03-06T06:19:14.853Z,84.46
2016-03-06T06:20:14.839Z,84.65
2016-03-06T06:21:14.717Z,84.36
2016-03-06T06:22:14.736Z,84.55
2016-03-06T06:23:14.583Z,84.46
2016-03-06T06:24:14.553Z,84.46
2016-03-06T06:25:14.494Z,84.36
2016-03-06T06:26:14.528Z,83.98
2016-03-06T06:27:14.358Z,83.98
2016-03-06T06:28:14.331Z,83.51
2016-03-06T06:29:14.255Z,83.61
2016-03-06T06:30:14.226Z,83.7
2016-03-06T06:31:14.135Z,83.61
2016-03-06T06:32:14.091Z,83.7
2016-03-06T06:33:14.047Z,83.51
2016-03-06T06:34:13.955Z,84.08
2016-03-06T06:35:13.943Z,83.51
2016-03-06T06:36:13.898Z,83.89
2016-03-06T06:37:13.792Z,83.8
2016-03-06T06:38:13.732Z,83.51
2016-03-06T06:39:13.671Z,83.42
2016-03-06T06:40:13.613Z,83.98
2016-03-06T06:41:13.599Z,84.08
2016-03-06T06:42:13.493Z,83.94
2016-03-06T06:43:13.448Z,83.8
2016-03-06T06:44:13.357Z,83.98
2016-03-06T06:45:13.329Z,84.08
2016-03-06T06:46:13.316Z,84.04
2016-03-06T06:47:13.178Z,83.89
2016-03-06T06:48:13.118Z,84.27
2016-03-06T06:49:13.059Z,84.46
2016-03-06T06:50:12.999Z,83.98
2016-03-06T06:51:12.986Z,83.98
2016-03-06T06:52:12.894Z,83.61
2016-03-06T06:53:12.834Z,83.32
2016-03-06T06:54:12.775Z,83.51
2016-03-06T06:55:12.699Z,83.7
2016-03-06T06:56:12.656Z,83.51
2016-03-06T06:57:12.611Z,83.89
2016-03-06T06:58:12.630Z,83.42
2016-03-06T06:59:12.491Z,83.42
2016-03-06T07:00:12.510Z,82.94
2016-03-06T07:01:12.372Z,83.04
2016-03-06T07:02:12.313Z,83.04
2016-03-06T07:03:12.236Z,82.94
2016-03-06T07:04:12.286Z,83.13
2016-03-06T07:05:12.117Z,83.13
2016-03-06T07:06:12.047Z,83.13
2016-03-06T07:07:12.018Z,82.75
2016-03-06T07:08:11.959Z,82.56
2016-03-06T07:09:11.898Z,82.47
2016-03-06T07:10:11.823Z,82.28
2016-03-06T07:11:11.810Z,82.56
2016-03-06T07:12:11.751Z,82.75
2016-03-06T07:13:11.643Z,83.04
2016-03-06T07:14:11.615Z,83.13
2016-03-06T07:15:11.603Z,83.04
2016-03-06T07:16:11.480Z,83.23
2016-03-06T07:17:11.436Z,83.23
2016-03-06T07:18:11.376Z,82.94
2016-03-06T07:19:11.316Z,83.32
2016-03-06T07:20:11.225Z,82.47
2016-03-06T07:21:11.274Z,82.56
2016-03-06T07:22:11.121Z,82.85
2016-03-06T07:23:11.092Z,82.75
2016-03-06T07:24:11.017Z,82.85
2016-03-06T07:25:10.941Z,82.66
2016-03-06T07:26:10.897Z,82.75
2016-03-06T07:27:10.853Z,81.99
2016-03-06T07:28:10.794Z,82.37
2016-03-06T07:29:10.749Z,82.09
2016-03-06T07:30:10.658Z,82.75
2016-03-06T07:31:10.599Z,82.75
2016-03-06T07:32:10.555Z,82.28
2016-03-06T07:33:10.494Z,82.09
2016-03-06T07:34:10.450Z,81.43
2016-03-06T07:35:10.374Z,81.99
2016-03-06T07:36:10.315Z,82.09
2016-03-06T07:37:10.271Z,82.28
2016-03-06T07:38:10.242Z,81.43
2016-03-06T07:39:10.135Z,81.99
2016-03-06T07:40:10.435Z,81.99
2016-03-06T07:41:10.031Z,82.09
2016-03-06T07:42:09.956Z,82.18
2016-03-06T07:43:10.006Z,81.52
2016-03-06T07:44:09.884Z,81.62
2016-03-06T07:45:09.808Z,81.43
2016-03-06T07:46:09.732Z,81.24
2016-03-06T07:47:09.673Z,81.43
2016-03-06T07:48:09.644Z,81.71
2016-03-06T07:49:09.553Z,81.9
2016-03-06T07:50:09.493Z,80.95
2016-03-06T07:51:09.433Z,80.95
2016-03-06T07:52:09.389Z,81.43
2016-03-06T07:53:09.313Z,81.24
2016-03-06T07:54:09.253Z,81.62
2016-03-06T07:55:09.241Z,81.52
2016-03-06T07:56:09.196Z,80.95
2016-03-06T07:57:09.074Z,81.24
2016-03-06T07:58:09.061Z,81.24
2016-03-06T07:59:09.002Z,81.62
2016-03-06T08:00:08.911Z,81.43
2016-03-06T08:01:08.897Z,81.24
2016-03-06T08:02:08.869Z,80.48
2016-03-06T08:03:08.716Z,80.76
2016-03-06T08:04:08.702Z,80.95
2016-03-06T08:05:08.612Z,80.95
2016-03-06T08:06:08.606Z,81.05
2016-03-06T08:07:08.516Z,80.86
2016-03-06T08:08:08.471Z,81.05
2016-03-06T08:09:08.412Z,80.86
2016-03-06T08:10:08.351Z,81.43
2016-03-06T08:11:08.292Z,80.95
2016-03-06T08:12:08.262Z,81.05
2016-03-06T08:13:08.187Z,81.33
2016-03-06T08:14:08.128Z,81.27
2016-03-06T08:15:08.068Z,80.9
2016-03-06T08:16:07.976Z,80.48
2016-03-06T08:17:07.933Z,80.38
2016-03-06T08:18:07.888Z,80.19
2016-03-06T08:19:07.845Z,80.24
2016-03-06T08:20:07.800Z,79.95
2016-03-06T08:21:07.740Z,80
2016-03-06T08:22:07.711Z,80
2016-03-06T08:23:07.590Z,79.91
2016-03-06T08:24:07.545Z,80.04
2016-03-06T08:25:07.485Z,79.76
2016-03-06T08:26:07.426Z,79.95
2016-03-06T08:27:07.366Z,79.91
2016-03-06T08:28:07.306Z,80.04
2016-03-06T08:29:07.308Z,79.76
2016-03-06T08:30:07.202Z,80.14
2016-03-06T08:31:07.126Z,79.15
2016-03-06T08:32:07.066Z,79.63
2016-03-06T08:33:07.022Z,79.38
2016-03-06T08:34:06.978Z,79.25
2016-03-06T08:35:06.887Z,79.57
2016-03-06T08:36:06.843Z,79.38
2016-03-06T08:37:06.783Z,79.47
2016-03-06T08:38:06.723Z,79.57
2016-03-06T08:39:06.664Z,79.95
2016-03-06T08:40:06.620Z,79.85
2016-03-06T08:41:06.528Z,79.95
2016-03-06T08:42:06.501Z,80.14
2016-03-06T08:43:06.440Z,79.28
2016-03-06T08:44:06.381Z,79.47
2016-03-06T08:45:06.321Z,79.57
2016-03-06T08:46:06.261Z,79.38
2016-03-06T08:47:06.217Z,79.28
2016-03-06T08:48:06.203Z,79.19
2016-03-06T08:49:06.222Z,79.57
2016-03-06T08:50:06.006Z,79.1
2016-03-06T08:51:05.992Z,79.19
2016-03-06T08:52:05.918Z,79.19
2016-03-06T08:53:05.889Z,79.38
2016-03-06T08:54:05.814Z,79.95
2016-03-06T08:55:05.753Z,79.76
2016-03-06T08:56:05.678Z,79.66
2016-03-06T08:57:05.650Z,79.76
2016-03-06T08:58:05.589Z,79.76
2016-03-06T08:59:05.499Z,79.57
2016-03-06T09:00:05.486Z,79.47
2016-03-06T09:01:05.427Z,79.95
2016-03-06T09:02:05.350Z,79.85
2016-03-06T09:03:05.275Z,79.85
2016-03-06T09:04:05.216Z,79.57
2016-03-06T09:05:05.171Z,79.66
2016-03-06T09:06:05.110Z,79.57
2016-03-06T09:07:05.036Z,79.85
2016-03-06T09:08:04.991Z,79.57
2016-03-06T09:09:04.932Z,79.47
2016-03-06T09:10:04.872Z,79.38
2016-03-06T09:11:04.859Z,79.57
2016-03-06T09:12:04.752Z,79.47
2016-03-06T09:13:04.693Z,80
2016-03-06T09:14:04.648Z,79.66
2016-03-06T09:15:04.589Z,79.95
2016-03-06T09:16:04.529Z,80.29
2016-03-06T09:17:04.453Z,79.85
2016-03-06T09:18:04.394Z,79.76
2016-03-06T09:19:04.334Z,79.85
2016-03-06T09:20:04.273Z,79.95
2016-03-06T09:21:04.231Z,79.95
2016-03-06T09:22:04.170Z,79.76
2016-03-06T09:23:04.110Z,80.14
2016-03-06T09:24:04.050Z,79.95
2016-03-06T09:25:03.991Z,79.66
2016-03-06T09:26:03.931Z,79.76
2016-03-06T09:27:03.855Z,79.95
2016-03-06T09:28:03.811Z,79.95
2016-03-06T09:29:03.766Z,79.76
2016-03-06T09:30:03.707Z,79
2016-03-06T09:31:03.632Z,79.19
2016-03-06T09:32:03.588Z,78.72
2016-03-06T09:33:03.528Z,78.91
2016-03-06T09:34:03.452Z,78.24
2016-03-06T09:35:03.424Z,77.96
2016-03-06T09:36:03.349Z,77.81
2016-03-06T09:37:03.319Z,78.09
2016-03-06T09:38:03.213Z,78
2016-03-06T09:39:03.200Z,77.62
2016-03-06T09:40:03.140Z,78.09
2016-03-06T09:41:03.080Z,77.81
2016-03-06T09:42:03.021Z,77.33
2016-03-06T09:43:02.977Z,76.95
2016-03-06T09:44:02.901Z,76.48
2016-03-06T09:45:02.825Z,75.72
2016-03-06T09:46:02.766Z,76.01
2016-03-06T09:47:02.721Z,75.24
2016-03-06T09:48:02.692Z,75.09
2016-03-06T09:49:02.587Z,74.9
2016-03-06T09:50:02.558Z,74.71
2016-03-06T09:51:02.482Z,73.38
2016-03-06T09:52:02.423Z,73.48
2016-03-06T09:53:02.378Z,72.66
2016-03-06T09:54:02.334Z,72.56
2016-03-06T09:55:02.275Z,72.66
2016-03-06T09:56:02.199Z,72.75
2016-03-06T09:57:02.155Z,73.04
2016-03-06T09:58:02.095Z,72.95
2016-03-06T09:59:02.020Z,73.04
2016-03-06T10:00:01.975Z,72.95
2016-03-06T10:01:01.930Z,72.38
2016-03-06T10:02:01.841Z,71.52
2016-03-06T10:03:01.811Z,71.08
2016-03-06T10:04:01.766Z,70.99
2016-03-06T10:05:01.708Z,71.84
2016-03-06T10:06:01.710Z,71.56
2016-03-06T10:07:01.588Z,70.13
2016-03-06T10:08:01.528Z,69.69
2016-03-06T10:09:01.499Z,70.17
2016-03-06T10:10:01.471Z,69.98
2016-03-06T10:11:01.365Z,69.6
2016-03-06T10:12:01.320Z,68.55
2016-03-06T10:13:01.260Z,68.84
2016-03-06T10:14:01.232Z,68.55
2016-03-06T10:15:01.140Z,68.27
2016-03-06T10:16:01.097Z,68.07
2016-03-06T10:17:01.021Z,67.6
2016-03-06T10:18:00.961Z,67.5
2016-03-06T10:19:00.917Z,67.13
2016-03-06T10:20:00.889Z,67.03
2016-03-06T10:21:00.797Z,67.32
2016-03-06T10:22:00.753Z,67.22
2016-03-06T10:23:00.787Z,67.07
2016-03-06T10:24:00.634Z,66.39
2016-03-06T10:25:00.558Z,65.73
2016-03-06T10:26:00.514Z,65.8
2016-03-06T10:27:00.454Z,66.27
2016-03-06T10:28:00.410Z,66.36
2016-03-06T10:29:00.397Z,65.41
2016-03-06T10:30:00.322Z,65.6
2016-03-06T10:31:00.246Z,64.65
2016-03-06T10:32:00.250Z,65.32
2016-03-06T10:33:00.205Z,65.03
2016-03-06T10:34:00.066Z,64.94
2016-03-06T10:35:00.008Z,64.84
2016-03-06T10:35:59.963Z,65.38
2016-03-06T10:36:59.902Z,65.57
2016-03-06T10:37:59.890Z,65.19
2016-03-06T10:38:59.861Z,65.28
2016-03-06T10:39:59.739Z,65.86
2016-03-06T10:40:59.710Z,65.38
2016-03-06T10:41:59.635Z,66.14
2016-03-06T10:42:59.576Z,65.95
2016-03-06T10:43:59.531Z,65.95
2016-03-06T10:44:59.456Z,65.38
2016-03-06T10:45:59.396Z,65.57
2016-03-06T10:46:59.336Z,66.05
2016-03-06T10:47:59.277Z,65.6
2016-03-06T10:48:59.232Z,66.65
2016-03-06T10:49:59.156Z,65.32
2016-03-06T10:50:59.112Z,64.56
2016-03-06T10:51:59.036Z,64.21
2016-03-06T10:52:58.993Z,63.92
2016-03-06T10:53:59.011Z,63.73
2016-03-06T10:54:58.889Z,63.35
2016-03-06T10:55:58.892Z,62.69
2016-03-06T10:56:58.847Z,62.78
2016-03-06T10:57:58.741Z,62.53
2016-03-06T10:58:58.650Z,61.29
2016-03-06T10:59:58.621Z,61.67
2016-03-06T11:00:58.608Z,61.77
2016-03-06T11:01:58.502Z,60.37
2016-03-06T11:02:58.583Z,60.27
2016-03-06T11:03:58.491Z,59.35
2016-03-06T11:04:58.463Z,58.59
2016-03-06T11:05:58.356Z,57.48
2016-03-06T11:06:58.233Z,56.14
2016-03-06T11:07:58.204Z,55.19
2016-03-06T11:08:58.192Z,55.28
2016-03-06T11:09:58.069Z,55.28
2016-03-06T11:10:58.026Z,55.6
2016-03-06T11:11:57.934Z,54.93
2016-03-06T11:12:57.906Z,55.21
2016-03-06T11:13:57.893Z,54.93
2016-03-06T11:14:57.833Z,53.97
2016-03-06T11:15:57.773Z,53.81
2016-03-06T11:16:57.682Z,52.95
2016-03-06T11:17:57.654Z,52.57
2016-03-06T11:18:57.563Z,52.5
2016-03-06T11:19:57.534Z,51.35
2016-03-06T11:20:57.459Z,50.88
2016-03-06T11:21:57.384Z,50.78
2016-03-06T11:22:57.339Z,50.59
2016-03-06T11:23:57.326Z,50.12
2016-03-06T11:24:57.250Z,49.66
2016-03-06T11:25:57.223Z,49.76
2016-03-06T11:26:57.147Z,50.33
2016-03-06T11:27:57.086Z,50.33
2016-03-06T11:28:57.106Z,49.47
2016-03-06T11:29:57.030Z,49.38
2016-03-06T11:30:56.938Z,48.39
2016-03-06T11:31:56.879Z,49.18
2016-03-06T11:32:56.803Z,50.21
2016-03-06T11:33:56.775Z,50.49
2016-03-06T11:34:56.872Z,50.59
2016-03-06T11:35:56.686Z,50.49
2016-03-06T11:36:56.596Z,51.14
2016-03-06T11:37:56.588Z,51.9
2016-03-06T11:38:56.529Z,52.67
2016-03-06T11:39:56.438Z,51.71
2016-03-06T11:40:56.377Z,51.33
2016-03-06T11:41:56.303Z,51.52
2016-03-06T11:42:56.258Z,51.68
2016-03-06T11:43:56.198Z,51.88
2016-03-06T11:44:56.155Z,51.9
2016-03-06T11:45:56.125Z,50.85
2016-03-06T11:46:56.066Z,49.83
2016-03-06T11:47:55.991Z,49.52
2016-03-06T11:48:55.977Z,50.47
2016-03-06T11:49:55.871Z,51.04
2016-03-06T11:50:55.842Z,50.95
2016-03-06T11:51:55.110Z,49.99
2016-03-06T11:52:55.723Z,50.28
2016-03-06T11:53:54.944Z,49.99
2016-03-06T11:54:55.649Z,49.9
2016-03-06T11:55:55.621Z,50.21
2016-03-06T11:56:55.499Z,50.98
2016-03-06T11:57:55.454Z,51.23
2016-03-06T11:58:55.410Z,50.85
2016-03-06T11:59:55.335Z,51.33
2016-03-06T12:00:55.306Z,51.31
2016-03-06T12:01:55.263Z,51.12
2016-03-06T12:02:55.296Z,50.92
2016-03-06T12:03:55.253Z,50.54
2016-03-06T12:04:55.083Z,51.5
2016-03-06T12:05:55.022Z,51.68
2016-03-06T12:06:55.026Z,51.47
2016-03-06T12:07:54.919Z,51.37
2016-03-06T12:08:54.859Z,51.37
2016-03-06T12:09:54.847Z,51.56
2016-03-06T12:10:54.755Z,52.33
2016-03-06T12:11:54.695Z,52.52
2016-03-06T12:12:54.761Z,53.09
2016-03-06T12:13:54.575Z,52.73
2016-03-06T12:14:54.516Z,53
2016-03-06T12:15:54.488Z,53.31
2016-03-06T12:16:54.599Z,52.55
2016-03-06T12:17:54.508Z,53.12
2016-03-06T12:18:54.323Z,53.5
2016-03-06T12:19:54.295Z,52.36
2016-03-06T12:20:54.344Z,52.45
2016-03-06T12:21:54.144Z,52.07
2016-03-06T12:22:54.162Z,51.4
2016-03-06T12:23:54.072Z,51.5
2016-03-06T12:24:54.074Z,51.88
2016-03-06T12:25:53.936Z,51.85
2016-03-06T12:26:53.893Z,51.76
2016-03-06T12:27:53.832Z,51.18
2016-03-06T12:28:53.912Z,51.47
2016-03-06T12:29:53.743Z,51.66
2016-03-06T12:30:53.701Z,52.4
2016-03-06T12:31:53.656Z,53
2016-03-06T12:32:53.564Z,51.92
2016-03-06T12:33:53.504Z,52.59
2016-03-06T12:34:53.507Z,52.78
2016-03-06T12:35:53.431Z,52.97
2016-03-06T12:36:53.356Z,53.73
2016-03-06T12:37:53.359Z,53.8
2016-03-06T12:38:53.393Z,53.61
2016-03-06T12:39:53.349Z,53.7
2016-03-06T12:40:53.133Z,53.7
2016-03-06T12:41:53.073Z,53.8
2016-03-06T12:42:53.107Z,54.18
2016-03-06T12:43:52.985Z,54.27
2016-03-06T12:44:53.173Z,53.8
2016-03-06T12:45:52.835Z,54.27
2016-03-06T12:46:52.794Z,54.82
2016-03-06T12:47:52.721Z,54.63
2016-03-06T12:48:52.633Z,54.63
2016-03-06T12:49:52.577Z,55.1
2016-03-06T12:50:52.528Z,55.01
2016-03-06T12:51:52.465Z,55.2
2016-03-06T12:52:52.416Z,56.03
2016-03-06T12:53:52.337Z,56.51
2016-03-06T12:54:52.289Z,56.41